createdAt,value
2016-05-24T00:00:44.513Z,0
2016-05-24T00:01:44.781Z,0
2016-05-24T00:02:44.676Z,0
2016-05-24T00:03:44.849Z,0
2016-05-24T00:04:44.540Z,0
2016-05-24T00:05:44.870Z,0
2016-05-24T00:06:44.857Z,0
2016-05-24T00:07:44.719Z,0
2016-05-24T00:08:44.722Z,0
2016-05-24T00:09:44.912Z,0
2016-05-24T00:10:44.759Z,0
2016-05-24T00:11:44.761Z,0
2016-05-24T00:12:44.748Z,0
2016-05-24T00:13:44.923Z,0
2016-05-24T00:14:45.003Z,0
2016-05-24T00:15:44.788Z,0
2016-05-24T00:16:44.978Z,0
2016-05-24T00:17:44.794Z,0
2016-05-24T00:18:44.843Z,0
2016-05-24T00:19:44.658Z,0
2016-05-24T00:20:44.989Z,0
2016-05-24T00:21:44.836Z,0
2016-05-24T00:22:45.025Z,0
2016-05-24T00:23:44.716Z,0
2016-05-24T00:24:45.030Z,0
2016-05-24T00:25:44.893Z,0
2016-05-24T00:26:44.723Z,0
2016-05-24T00:27:45.071Z,0
2016-05-24T00:28:45.088Z,0
2016-05-24T00:29:44.779Z,0
2016-05-24T00:30:45.093Z,0
2016-05-24T00:31:44.957Z,0
2016-05-24T00:32:45.115Z,0
2016-05-24T00:33:45.118Z,0
2016-05-24T00:34:44.979Z,0
2016-05-24T00:35:44.810Z,0
2016-05-24T00:36:44.984Z,0
2016-05-24T00:37:45.144Z,0
2016-05-24T00:38:45.178Z,0
2016-05-24T00:39:45.165Z,0
2016-05-24T00:40:45.184Z,0
2016-05-24T00:41:45.186Z,0
2016-05-24T00:42:45.033Z,0
2016-05-24T00:43:45.222Z,0
2016-05-24T00:44:45.084Z,0
2016-05-24T00:45:45.275Z,0
2016-05-24T00:46:45.075Z,0
2016-05-24T00:47:44.936Z,0
2016-05-24T00:48:45.252Z,0
2016-05-24T00:49:45.130Z,0
2016-05-24T00:50:45.101Z,0
2016-05-24T00:51:45.150Z,0
2016-05-24T00:52:45.138Z,0
2016-05-24T00:53:45.155Z,0
2016-05-24T00:54:45.315Z,0
2016-05-24T00:55:45.333Z,0
2016-05-24T00:56:45.336Z,0
2016-05-24T00:57:45.338Z,0
2016-05-24T00:58:45.185Z,0
2016-05-24T00:59:45.218Z,0
2016-05-24T01:00:45.373Z,0
2016-05-24T01:01:45.435Z,0
2016-05-24T01:02:45.450Z,0
2016-05-24T01:03:45.498Z,0
2016-05-24T01:04:45.528Z,0
2016-05-24T01:05:45.568Z,0
2016-05-24T01:06:45.424Z,0
2016-05-24T01:07:45.608Z,0
2016-05-24T01:08:45.622Z,0
2016-05-24T01:09:45.620Z,0
2016-05-24T01:10:45.677Z,0
2016-05-24T01:11:45.558Z,0
2016-05-24T01:12:45.690Z,0
2016-05-24T01:13:45.696Z,0
2016-05-24T01:14:45.921Z,0
2016-05-24T01:15:45.584Z,0
2016-05-24T01:16:45.571Z,0
2016-05-24T01:17:45.762Z,0
2016-05-24T01:18:45.751Z,0
2016-05-24T01:19:45.598Z,0
2016-05-24T01:20:45.789Z,0
2016-05-24T01:21:45.777Z,0
2016-05-24T01:22:45.795Z,0
2016-05-24T01:23:45.799Z,0
2016-05-24T01:24:45.676Z,0
2016-05-24T01:25:45.821Z,0
2016-05-24T01:26:45.541Z,0
2016-05-24T01:27:45.858Z,0
2016-05-24T01:28:45.876Z,0
2016-05-24T01:29:46.020Z,0
2016-05-24T01:30:45.882Z,0
2016-05-24T01:31:45.745Z,0
2016-05-24T01:32:45.889Z,0
2016-05-24T01:33:45.922Z,0
2016-05-24T01:34:45.924Z,0
2016-05-24T01:35:45.458Z,0
2016-05-24T01:36:45.929Z,0
2016-05-24T01:37:45.948Z,0
2016-05-24T01:38:45.936Z,0
2016-05-24T01:39:45.969Z,0
2016-05-24T01:40:45.956Z,0
2016-05-24T01:41:45.833Z,0
2016-05-24T01:42:45.977Z,0
2016-05-24T01:43:45.838Z,0
2016-05-24T01:44:46.124Z,0
2016-05-24T01:45:46.016Z,0
2016-05-24T01:46:45.847Z,0
2016-05-24T01:47:46.037Z,0
2016-05-24T01:48:46.056Z,0
2016-05-24T01:49:45.918Z,0
2016-05-24T01:50:46.062Z,0
2016-05-24T01:51:46.079Z,0
2016-05-24T01:52:46.082Z,0
2016-05-24T01:53:45.959Z,0
2016-05-24T01:54:46.118Z,0
2016-05-24T01:55:46.121Z,0
2016-05-24T01:56:46.109Z,0
2016-05-24T01:57:46.142Z,0
2016-05-24T01:58:46.129Z,0
2016-05-24T01:59:46.179Z,0
2016-05-24T02:00:46.151Z,0
2016-05-24T02:01:46.169Z,0
2016-05-24T02:02:46.187Z,0
2016-05-24T02:03:46.017Z,0
2016-05-24T02:04:46.192Z,0
2016-05-24T02:05:46.038Z,0
2016-05-24T02:06:46.214Z,0
2016-05-24T02:07:46.045Z,0
2016-05-24T02:08:46.078Z,0
2016-05-24T02:09:46.080Z,0
2016-05-24T02:10:46.255Z,0
2016-05-24T02:11:46.102Z,0
2016-05-24T02:12:46.105Z,0
2016-05-24T02:13:46.155Z,0
2016-05-24T02:14:46.516Z,0
2016-05-24T02:15:46.316Z,0
2016-05-24T02:16:46.146Z,0
2016-05-24T02:17:46.337Z,0
2016-05-24T02:18:46.340Z,0
2016-05-24T02:19:46.326Z,0
2016-05-24T02:20:46.330Z,0
2016-05-24T02:21:46.348Z,0
2016-05-24T02:22:46.365Z,0
2016-05-24T02:23:46.212Z,0
2016-05-24T02:24:46.278Z,0
2016-05-24T02:25:46.218Z,0
2016-05-24T02:26:46.408Z,0
2016-05-24T02:27:46.239Z,0
2016-05-24T02:28:46.429Z,0
2016-05-24T02:29:46.526Z,0
2016-05-24T02:30:46.450Z,0
2016-05-24T02:31:46.281Z,0
2016-05-24T02:32:46.455Z,0
2016-05-24T02:33:46.458Z,0
2016-05-24T02:34:46.304Z,0
2016-05-24T02:35:46.479Z,0
2016-05-24T02:36:46.513Z,0
2016-05-24T02:37:46.500Z,0
2016-05-24T02:38:46.377Z,0
2016-05-24T02:39:46.536Z,0
2016-05-24T02:40:46.383Z,0
2016-05-24T02:41:46.527Z,0
2016-05-24T02:42:46.420Z,0
2016-05-24T02:43:46.391Z,0
2016-05-24T02:44:46.221Z,0
2016-05-24T02:45:46.630Z,0
2016-05-24T02:46:46.602Z,0
2016-05-24T02:47:46.730Z,0
2016-05-24T02:48:46.624Z,0
2016-05-24T02:49:46.454Z,0
2016-05-24T02:50:46.629Z,0
2016-05-24T02:51:46.537Z,0
2016-05-24T02:52:46.571Z,0
2016-05-24T02:53:46.731Z,0
2016-05-24T02:54:46.562Z,0
2016-05-24T02:55:46.657Z,0
2016-05-24T02:56:46.676Z,0
2016-05-24T02:57:46.538Z,0
2016-05-24T02:58:46.370Z,0
2016-05-24T02:59:47.168Z,0
2016-05-24T03:00:46.734Z,0
2016-05-24T03:01:46.580Z,0
2016-05-24T03:02:46.739Z,0
2016-05-24T03:03:46.617Z,0
2016-05-24T03:04:46.620Z,0
2016-05-24T03:05:46.747Z,0
2016-05-24T03:06:46.766Z,0
2016-05-24T03:07:46.784Z,0
2016-05-24T03:08:46.802Z,0
2016-05-24T03:09:46.805Z,0
2016-05-24T03:10:46.823Z,0
2016-05-24T03:11:46.654Z,0
2016-05-24T03:12:46.672Z,0
2016-05-24T03:13:46.846Z,0
2016-05-24T03:14:46.708Z,0
2016-05-24T03:15:46.868Z,0
2016-05-24T03:16:46.855Z,0
2016-05-24T03:17:46.733Z,0
2016-05-24T03:18:46.891Z,0
2016-05-24T03:19:46.737Z,0
2016-05-24T03:20:46.599Z,0
2016-05-24T03:21:46.774Z,0
2016-05-24T03:22:46.777Z,0
2016-05-24T03:23:46.921Z,0
2016-05-24T03:24:46.798Z,0
2016-05-24T03:25:46.942Z,0
2016-05-24T03:26:46.820Z,0
2016-05-24T03:27:46.978Z,0
2016-05-24T03:28:46.981Z,0
2016-05-24T03:29:47.531Z,0
2016-05-24T03:30:46.845Z,0
2016-05-24T03:31:46.864Z,0
2016-05-24T03:32:47.007Z,0
2016-05-24T03:33:47.041Z,0
2016-05-24T03:34:47.028Z,0
2016-05-24T03:35:47.031Z,0
2016-05-24T03:36:47.049Z,0
2016-05-24T03:37:47.084Z,0
2016-05-24T03:38:47.086Z,0
2016-05-24T03:39:47.073Z,0
2016-05-24T03:40:46.950Z,0
2016-05-24T03:41:47.094Z,0
2016-05-24T03:42:46.955Z,0
2016-05-24T03:43:47.100Z,0
2016-05-24T03:44:47.508Z,0
2016-05-24T03:45:47.121Z,0
2016-05-24T03:46:47.169Z,0
2016-05-24T03:47:47.141Z,0
2016-05-24T03:48:47.190Z,0
2016-05-24T03:49:47.163Z,0
2016-05-24T03:50:46.884Z,0
2016-05-24T03:51:47.199Z,0
2016-05-24T03:52:47.201Z,0
2016-05-24T03:53:47.205Z,0
2016-05-24T03:54:47.238Z,4
2016-05-24T03:55:47.226Z,4
2016-05-24T03:56:47.071Z,4
2016-05-24T03:57:47.074Z,4
2016-05-24T03:58:47.265Z,4
2016-05-24T03:59:47.798Z,4
2016-05-24T04:00:47.286Z,4
2016-05-24T04:01:47.117Z,4
2016-05-24T04:02:47.306Z,4
2016-05-24T04:03:47.278Z,0
2016-05-24T04:04:47.156Z,0
2016-05-24T04:05:47.159Z,0
2016-05-24T04:06:47.192Z,0
2016-05-24T04:07:47.336Z,4
2016-05-24T04:08:47.353Z,4
2016-05-24T04:09:47.356Z,4
2016-05-24T04:10:47.359Z,0
2016-05-24T04:11:47.222Z,0
2016-05-24T04:12:47.083Z,4
2016-05-24T04:13:47.258Z,4
2016-05-24T04:14:47.260Z,4
2016-05-24T04:15:47.263Z,4
2016-05-24T04:16:47.267Z,4
2016-05-24T04:17:47.285Z,4
2016-05-24T04:18:47.460Z,4
2016-05-24T04:19:47.305Z,4
2016-05-24T04:20:47.464Z,4
2016-05-24T04:21:47.311Z,4
2016-05-24T04:22:47.516Z,4
2016-05-24T04:23:47.488Z,4
2016-05-24T04:24:47.554Z,8
2016-05-24T04:25:47.493Z,4
2016-05-24T04:26:47.496Z,4
2016-05-24T04:27:47.545Z,4
2016-05-24T04:28:47.549Z,4
2016-05-24T04:29:48.098Z,4
2016-05-24T04:30:47.538Z,4
2016-05-24T04:31:47.572Z,8
2016-05-24T04:32:47.590Z,8
2016-05-24T04:33:47.421Z,8
2016-05-24T04:34:47.596Z,8
2016-05-24T04:35:47.286Z,8
2016-05-24T04:36:47.601Z,8
2016-05-24T04:37:47.603Z,4
2016-05-24T04:38:47.325Z,4
2016-05-24T04:39:47.625Z,4
2016-05-24T04:40:47.503Z,4
2016-05-24T04:41:47.646Z,4
2016-05-24T04:42:47.649Z,4
2016-05-24T04:43:47.666Z,4
2016-05-24T04:44:47.701Z,8
2016-05-24T04:45:47.750Z,4
2016-05-24T04:46:47.722Z,4
2016-05-24T04:47:47.724Z,4
2016-05-24T04:48:47.571Z,4
2016-05-24T04:49:47.557Z,4
2016-05-24T04:50:47.749Z,4
2016-05-24T04:51:47.580Z,4
2016-05-24T04:52:47.754Z,4
2016-05-24T04:53:47.599Z,0
2016-05-24T04:54:47.790Z,0
2016-05-24T04:55:47.762Z,4
2016-05-24T04:56:47.796Z,4
2016-05-24T04:57:47.799Z,4
2016-05-24T04:58:47.801Z,4
2016-05-24T04:59:47.834Z,4
2016-05-24T05:00:47.682Z,4
2016-05-24T05:01:47.856Z,4
2016-05-24T05:02:47.843Z,0
2016-05-24T05:03:47.846Z,0
2016-05-24T05:04:47.848Z,0
2016-05-24T05:05:47.898Z,4
2016-05-24T05:06:47.728Z,4
2016-05-24T05:07:47.903Z,4
2016-05-24T05:08:47.906Z,4
2016-05-24T05:09:47.940Z,4
2016-05-24T05:10:47.911Z,4
2016-05-24T05:11:47.945Z,0
2016-05-24T05:12:47.792Z,4
2016-05-24T05:13:47.951Z,4
2016-05-24T05:14:47.953Z,0
2016-05-24T05:15:47.675Z,4
2016-05-24T05:16:47.818Z,4
2016-05-24T05:17:48.008Z,4
2016-05-24T05:18:47.980Z,8
2016-05-24T05:19:47.999Z,4
2016-05-24T05:20:48.001Z,8
2016-05-24T05:21:48.035Z,8
2016-05-24T05:22:47.866Z,8
2016-05-24T05:23:48.072Z,8
2016-05-24T05:24:48.042Z,8
2016-05-24T05:25:48.077Z,4
2016-05-24T05:26:47.908Z,4
2016-05-24T05:27:48.066Z,4
2016-05-24T05:28:48.084Z,8
2016-05-24T05:29:47.946Z,8
2016-05-24T05:30:48.215Z,8
2016-05-24T05:31:47.968Z,8
2016-05-24T05:32:48.142Z,8
2016-05-24T05:33:48.115Z,8
2016-05-24T05:34:47.992Z,8
2016-05-24T05:35:48.166Z,8
2016-05-24T05:36:47.841Z,8
2016-05-24T05:37:48.187Z,8
2016-05-24T05:38:48.174Z,8
2016-05-24T05:39:48.208Z,8
2016-05-24T05:40:48.023Z,8
2016-05-24T05:41:48.073Z,8
2016-05-24T05:42:48.200Z,8
2016-05-24T05:43:48.063Z,12
2016-05-24T05:44:48.081Z,12
2016-05-24T05:45:48.271Z,12
2016-05-24T05:46:48.258Z,12
2016-05-24T05:47:48.260Z,12
2016-05-24T05:48:47.966Z,16
2016-05-24T05:49:48.267Z,20
2016-05-24T05:50:48.316Z,16
2016-05-24T05:51:48.288Z,20
2016-05-24T05:52:48.321Z,20
2016-05-24T05:53:48.152Z,20
2016-05-24T05:54:48.342Z,20
2016-05-24T05:55:48.329Z,20
2016-05-24T05:56:48.363Z,16
2016-05-24T05:57:48.335Z,20
2016-05-24T05:58:48.384Z,20
2016-05-24T05:59:48.387Z,16
2016-05-24T06:00:48.484Z,20
2016-05-24T06:01:48.376Z,20
2016-05-24T06:02:48.270Z,20
2016-05-24T06:03:48.412Z,24
2016-05-24T06:04:48.416Z,24
2016-05-24T06:05:48.262Z,24
2016-05-24T06:06:48.453Z,28
2016-05-24T06:07:48.283Z,28
2016-05-24T06:08:48.317Z,24
2016-05-24T06:09:48.460Z,28
2016-05-24T06:10:48.619Z,32
2016-05-24T06:11:48.310Z,28
2016-05-24T06:12:48.812Z,24
2016-05-24T06:13:48.346Z,28
2016-05-24T06:14:48.381Z,24
2016-05-24T06:15:51.586Z,24
2016-05-24T06:16:52.401Z,28
2016-05-24T06:17:48.450Z,24
2016-05-24T06:18:48.407Z,28
2016-05-24T06:19:48.394Z,28
2016-05-24T06:20:48.569Z,28
2016-05-24T06:21:48.555Z,28
2016-05-24T06:22:48.589Z,28
2016-05-24T06:23:48.576Z,24
2016-05-24T06:24:48.610Z,20
2016-05-24T06:25:48.597Z,20
2016-05-24T06:26:48.475Z,16
2016-05-24T06:27:48.634Z,20
2016-05-24T06:28:48.480Z,20
2016-05-24T06:29:49.187Z,20
2016-05-24T06:30:48.860Z,20
2016-05-24T06:31:48.676Z,20
2016-05-24T06:32:48.523Z,28
2016-05-24T06:33:48.541Z,24
2016-05-24T06:34:48.715Z,28
2016-05-24T06:35:48.718Z,24
2016-05-24T06:36:48.549Z,28
2016-05-24T06:37:48.708Z,28
2016-05-24T06:38:48.742Z,28
2016-05-24T06:39:48.729Z,24
2016-05-24T06:40:48.763Z,24
2016-05-24T06:41:48.750Z,20
2016-05-24T06:42:48.783Z,24
2016-05-24T06:43:48.755Z,20
2016-05-24T06:44:49.305Z,28
2016-05-24T06:45:49.011Z,24
2016-05-24T06:46:48.811Z,20
2016-05-24T06:47:48.797Z,20
2016-05-24T06:48:48.831Z,24
2016-05-24T06:49:48.819Z,20
2016-05-24T06:50:48.665Z,24
2016-05-24T06:51:48.855Z,20
2016-05-24T06:52:48.717Z,20
2016-05-24T06:53:48.876Z,16
2016-05-24T06:54:48.910Z,20
2016-05-24T06:55:48.897Z,20
2016-05-24T06:56:48.946Z,20
2016-05-24T06:57:48.902Z,16
2016-05-24T06:58:48.968Z,20
2016-05-24T06:59:48.752Z,16
2016-05-24T07:00:48.802Z,20
2016-05-24T07:01:48.976Z,20
2016-05-24T07:02:48.838Z,20
2016-05-24T07:03:48.965Z,20
2016-05-24T07:04:48.968Z,20
2016-05-24T07:05:48.830Z,24
2016-05-24T07:06:49.004Z,24
2016-05-24T07:07:49.007Z,24
2016-05-24T07:08:49.010Z,28
2016-05-24T07:09:49.029Z,28
2016-05-24T07:10:49.015Z,48
2016-05-24T07:11:49.018Z,64
2016-05-24T07:12:49.053Z,72
2016-05-24T07:13:48.915Z,76
2016-05-24T07:14:48.729Z,76
2016-05-24T07:15:49.575Z,76
2016-05-24T07:16:48.922Z,84
2016-05-24T07:17:49.097Z,84
2016-05-24T07:18:49.083Z,92
2016-05-24T07:19:49.117Z,88
2016-05-24T07:20:49.120Z,88
2016-05-24T07:21:49.014Z,96
2016-05-24T07:22:49.125Z,100
2016-05-24T07:23:49.222Z,100
2016-05-24T07:24:49.038Z,96
2016-05-24T07:25:49.166Z,104
2016-05-24T07:26:49.199Z,104
2016-05-24T07:27:49.233Z,96
2016-05-24T07:28:49.033Z,96
2016-05-24T07:29:49.613Z,100
2016-05-24T07:30:49.147Z,96
2016-05-24T07:31:49.071Z,96
2016-05-24T07:32:49.043Z,100
2016-05-24T07:33:49.077Z,96
2016-05-24T07:34:49.237Z,92
2016-05-24T07:35:49.317Z,96
2016-05-24T07:36:49.257Z,92
2016-05-24T07:37:49.260Z,92
2016-05-24T07:38:49.279Z,88
2016-05-24T07:39:49.265Z,92
2016-05-24T07:40:49.284Z,88
2016-05-24T07:41:49.286Z,88
2016-05-24T07:42:49.304Z,88
2016-05-24T07:43:49.339Z,92
2016-05-24T07:44:49.325Z,88
2016-05-24T07:45:49.048Z,92
2016-05-24T07:46:49.331Z,92
2016-05-24T07:47:49.427Z,96
2016-05-24T07:48:49.040Z,92
2016-05-24T07:49:49.417Z,96
2016-05-24T07:50:49.295Z,100
2016-05-24T07:51:49.361Z,96
2016-05-24T07:52:49.238Z,96
2016-05-24T07:53:49.491Z,96
2016-05-24T07:54:49.415Z,96
2016-05-24T07:55:49.277Z,96
2016-05-24T07:56:49.327Z,100
2016-05-24T07:57:49.236Z,100
2016-05-24T07:58:49.441Z,100
2016-05-24T07:59:49.475Z,96
2016-05-24T08:00:49.477Z,100
2016-05-24T08:01:49.480Z,96
2016-05-24T08:02:49.546Z,92
2016-05-24T08:03:49.502Z,96
2016-05-24T08:04:49.349Z,88
2016-05-24T08:05:49.382Z,92
2016-05-24T08:06:49.354Z,88
2016-05-24T08:07:49.356Z,92
2016-05-24T08:08:49.531Z,88
2016-05-24T08:09:49.565Z,92
2016-05-24T08:10:49.537Z,88
2016-05-24T08:11:49.257Z,88
2016-05-24T08:12:49.432Z,92
2016-05-24T08:13:49.592Z,92
2016-05-24T08:14:49.437Z,96
2016-05-24T08:15:49.472Z,100
2016-05-24T08:16:49.600Z,96
2016-05-24T08:17:49.728Z,100
2016-05-24T08:18:49.651Z,96
2016-05-24T08:19:49.669Z,96
2016-05-24T08:20:49.719Z,96
2016-05-24T08:21:49.535Z,92
2016-05-24T08:22:49.709Z,88
2016-05-24T08:23:49.681Z,96
2016-05-24T08:24:49.606Z,96
2016-05-24T08:25:49.717Z,96
2016-05-24T08:26:49.719Z,100
2016-05-24T08:27:49.722Z,96
2016-05-24T08:28:49.710Z,100
2016-05-24T08:29:49.572Z,100
2016-05-24T08:30:49.887Z,96
2016-05-24T08:31:49.608Z,96
2016-05-24T08:32:49.627Z,100
2016-05-24T08:33:49.770Z,96
2016-05-24T08:34:49.632Z,100
2016-05-24T08:35:49.963Z,100
2016-05-24T08:36:49.810Z,96
2016-05-24T08:37:49.827Z,100
2016-05-24T08:38:49.737Z,104
2016-05-24T08:39:49.707Z,104
2016-05-24T08:40:49.835Z,104
2016-05-24T08:41:49.932Z,108
2016-05-24T08:42:49.888Z,104
2016-05-24T08:43:49.954Z,104
2016-05-24T08:44:49.721Z,104
2016-05-24T08:45:50.162Z,108
2016-05-24T08:46:49.914Z,108
2016-05-24T08:47:49.948Z,116
2016-05-24T08:48:49.856Z,108
2016-05-24T08:49:49.766Z,104
2016-05-24T08:50:49.957Z,104
2016-05-24T08:51:49.959Z,100
2016-05-24T08:52:49.961Z,108
2016-05-24T08:53:50.089Z,108
2016-05-24T08:54:49.998Z,104
2016-05-24T08:55:49.969Z,108
2016-05-24T08:56:50.004Z,108
2016-05-24T08:57:49.850Z,104
2016-05-24T08:58:50.134Z,104
2016-05-24T08:59:50.043Z,108
2016-05-24T09:00:52.811Z,100
2016-05-24T09:01:50.064Z,108
2016-05-24T09:02:50.066Z,112
2016-05-24T09:03:50.070Z,108
2016-05-24T09:04:50.025Z,108
2016-05-24T09:05:50.137Z,108
2016-05-24T09:06:50.124Z,116
2016-05-24T09:07:50.096Z,116
2016-05-24T09:08:50.115Z,108
2016-05-24T09:09:50.117Z,112
2016-05-24T09:10:50.010Z,112
2016-05-24T09:11:50.201Z,112
2016-05-24T09:12:50.235Z,108
2016-05-24T09:13:50.159Z,116
2016-05-24T09:14:50.177Z,112
2016-05-24T09:15:54.821Z,108
2016-05-24T09:16:50.026Z,108
2016-05-24T09:17:50.201Z,112
2016-05-24T09:18:50.203Z,112
2016-05-24T09:19:50.206Z,112
2016-05-24T09:20:52.459Z,104
2016-05-24T09:21:50.087Z,104
2016-05-24T09:22:50.292Z,108
2016-05-24T09:23:50.264Z,104
2016-05-24T09:24:50.111Z,108
2016-05-24T09:25:51.895Z,104
2016-05-24T09:26:50.116Z,112
2016-05-24T09:27:50.211Z,120
2016-05-24T09:28:50.309Z,112
2016-05-24T09:29:50.155Z,112
2016-05-24T09:30:51.736Z,120
2016-05-24T09:31:49.895Z,120
2016-05-24T09:32:50.429Z,116
2016-05-24T09:33:50.369Z,116
2016-05-24T09:34:50.278Z,124
2016-05-24T09:35:52.421Z,112
2016-05-24T09:36:50.329Z,112
2016-05-24T09:37:50.271Z,112
2016-05-24T09:38:50.226Z,108
2016-05-24T09:39:50.463Z,112
2016-05-24T09:40:50.279Z,120
2016-05-24T09:41:50.281Z,124
2016-05-24T09:42:50.284Z,124
2016-05-24T09:43:50.443Z,124
2016-05-24T09:44:50.461Z,124
2016-05-24T09:45:52.479Z,128
2016-05-24T09:46:50.512Z,124
2016-05-24T09:47:50.376Z,124
2016-05-24T09:48:50.348Z,116
2016-05-24T09:49:50.489Z,124
2016-05-24T09:50:50.399Z,120
2016-05-24T09:51:50.542Z,120
2016-05-24T09:52:50.529Z,128
2016-05-24T09:53:50.673Z,128
2016-05-24T09:54:50.550Z,124
2016-05-24T09:55:50.412Z,128
2016-05-24T09:56:50.603Z,132
2016-05-24T09:57:50.605Z,128
2016-05-24T09:58:50.436Z,136
2016-05-24T09:59:50.595Z,136
2016-05-24T10:00:50.723Z,148
2016-05-24T10:01:50.507Z,148
2016-05-24T10:02:50.635Z,152
2016-05-24T10:03:50.638Z,152
2016-05-24T10:04:50.702Z,152
2016-05-24T10:05:50.501Z,144
2016-05-24T10:06:50.534Z,152
2016-05-24T10:07:50.652Z,152
2016-05-24T10:08:50.864Z,148
2016-05-24T10:09:50.764Z,156
2016-05-24T10:10:50.914Z,152
2016-05-24T10:11:50.913Z,148
2016-05-24T10:12:50.862Z,152
2016-05-24T10:13:50.716Z,156
2016-05-24T10:14:50.898Z,156
2016-05-24T10:15:50.973Z,164
2016-05-24T10:16:50.777Z,168
2016-05-24T10:17:50.923Z,168
2016-05-24T10:18:51.100Z,172
2016-05-24T10:19:51.043Z,176
2016-05-24T10:20:51.533Z,192
2016-05-24T10:21:50.975Z,196
2016-05-24T10:22:50.885Z,200
2016-05-24T10:23:50.842Z,200
2016-05-24T10:24:50.704Z,188
2016-05-24T10:25:51.115Z,180
2016-05-24T10:26:51.056Z,164
2016-05-24T10:27:51.075Z,148
2016-05-24T10:28:51.078Z,144
2016-05-24T10:29:50.909Z,144
2016-05-24T10:30:51.490Z,140
2016-05-24T10:31:52.415Z,132
2016-05-24T10:32:51.168Z,124
2016-05-24T10:33:51.092Z,124
2016-05-24T10:34:51.110Z,116
2016-05-24T10:35:50.972Z,124
2016-05-24T10:36:51.850Z,124
2016-05-24T10:37:51.165Z,124
2016-05-24T10:38:51.153Z,116
2016-05-24T10:39:51.201Z,112
2016-05-24T10:40:51.158Z,120
2016-05-24T10:41:51.051Z,124
2016-05-24T10:42:51.225Z,116
2016-05-24T10:43:50.900Z,120
2016-05-24T10:44:51.231Z,120
2016-05-24T10:45:51.358Z,128
2016-05-24T10:46:52.658Z,140
2016-05-24T10:47:51.067Z,144
2016-05-24T10:48:51.117Z,160
2016-05-24T10:49:50.978Z,156
2016-05-24T10:50:51.263Z,140
2016-05-24T10:51:52.453Z,136
2016-05-24T10:52:51.315Z,132
2016-05-24T10:53:51.146Z,140
2016-05-24T10:54:51.398Z,144
2016-05-24T10:55:51.338Z,148
2016-05-24T10:56:51.326Z,152
2016-05-24T10:57:51.360Z,152
2016-05-24T10:58:51.331Z,136
2016-05-24T10:59:51.224Z,148
2016-05-24T11:00:51.570Z,152
2016-05-24T11:01:52.027Z,144
2016-05-24T11:02:51.467Z,144
2016-05-24T11:03:51.329Z,84
2016-05-24T11:04:51.285Z,80
2016-05-24T11:05:51.490Z,80
2016-05-24T11:06:52.509Z,80
2016-05-24T11:07:51.340Z,76
2016-05-24T11:08:51.295Z,72
2016-05-24T11:09:51.298Z,76
2016-05-24T11:10:51.457Z,84
2016-05-24T11:11:51.537Z,80
2016-05-24T11:12:51.337Z,72
2016-05-24T11:13:51.511Z,68
2016-05-24T11:14:51.562Z,60
2016-05-24T11:15:51.470Z,68
2016-05-24T11:16:52.754Z,64
2016-05-24T11:17:51.273Z,68
2016-05-24T11:18:51.525Z,64
2016-05-24T11:19:51.559Z,68
2016-05-24T11:20:51.562Z,56
2016-05-24T11:21:53.736Z,68
2016-05-24T11:22:51.614Z,60
2016-05-24T11:23:51.617Z,60
2016-05-24T11:24:51.447Z,60
2016-05-24T11:25:51.700Z,64
2016-05-24T11:26:51.610Z,56
2016-05-24T11:27:51.627Z,68
2016-05-24T11:28:51.630Z,68
2016-05-24T11:29:51.571Z,68
2016-05-24T11:30:51.949Z,68
2016-05-24T11:31:51.685Z,72
2016-05-24T11:32:51.532Z,64
2016-05-24T11:33:51.707Z,64
2016-05-24T11:34:51.694Z,60
2016-05-24T11:35:51.790Z,60
2016-05-24T11:36:51.573Z,60
2016-05-24T11:37:51.717Z,64
2016-05-24T11:38:51.735Z,60
2016-05-24T11:39:51.754Z,56
2016-05-24T11:40:51.756Z,48
2016-05-24T11:41:51.743Z,44
2016-05-24T11:42:51.668Z,44
2016-05-24T11:43:51.686Z,76
2016-05-24T11:44:51.705Z,96
2016-05-24T11:45:51.800Z,108
2016-05-24T11:46:51.819Z,108
2016-05-24T11:47:51.713Z,116
2016-05-24T11:48:51.825Z,120
2016-05-24T11:49:51.703Z,120
2016-05-24T11:50:51.784Z,128
2016-05-24T11:51:51.894Z,132
2016-05-24T11:52:52.148Z,140
2016-05-24T11:53:51.730Z,144
2016-05-24T11:54:51.997Z,136
2016-05-24T11:55:51.860Z,140
2016-05-24T11:56:51.940Z,140
2016-05-24T11:57:52.068Z,140
2016-05-24T11:58:51.993Z,140
2016-05-24T11:59:51.963Z,136
2016-05-24T12:00:51.810Z,136
2016-05-24T12:01:51.985Z,128
2016-05-24T12:02:52.003Z,124
2016-05-24T12:03:51.990Z,120
2016-05-24T12:04:52.055Z,116
2016-05-24T12:05:51.855Z,112
2016-05-24T12:06:51.998Z,120
2016-05-24T12:07:52.142Z,128
2016-05-24T12:08:51.879Z,136
2016-05-24T12:09:52.007Z,132
2016-05-24T12:10:51.931Z,128
2016-05-24T12:11:51.934Z,132
2016-05-24T12:12:52.045Z,128
2016-05-24T12:13:52.064Z,124
2016-05-24T12:14:52.145Z,132
2016-05-24T12:15:52.788Z,132
2016-05-24T12:16:52.181Z,132
2016-05-24T12:17:51.965Z,128
2016-05-24T12:18:52.218Z,136
2016-05-24T12:19:52.220Z,128
2016-05-24T12:20:52.160Z,128
2016-05-24T12:21:52.195Z,124
2016-05-24T12:22:52.197Z,132
2016-05-24T12:23:52.216Z,136
2016-05-24T12:24:52.218Z,128
2016-05-24T12:25:52.034Z,124
2016-05-24T12:26:52.224Z,116
2016-05-24T12:27:52.085Z,120
2016-05-24T12:28:52.104Z,116
2016-05-24T12:29:52.232Z,108
2016-05-24T12:30:52.375Z,112
2016-05-24T12:31:52.253Z,124
2016-05-24T12:32:52.287Z,128
2016-05-24T12:33:52.180Z,120
2016-05-24T12:34:52.152Z,120
2016-05-24T12:35:52.296Z,132
2016-05-24T12:36:52.329Z,128
2016-05-24T12:37:52.316Z,128
2016-05-24T12:38:52.428Z,128
2016-05-24T12:39:52.181Z,124
2016-05-24T12:40:52.418Z,132
2016-05-24T12:41:52.201Z,136
2016-05-24T12:42:52.376Z,132
2016-05-24T12:43:52.394Z,132
2016-05-24T12:44:54.866Z,132
2016-05-24T12:45:52.807Z,152
2016-05-24T12:46:52.247Z,160
2016-05-24T12:47:52.436Z,160
2016-05-24T12:48:52.423Z,168
2016-05-24T12:49:53.255Z,164
2016-05-24T12:50:52.445Z,172
2016-05-24T12:51:52.464Z,152
2016-05-24T12:52:52.513Z,148
2016-05-24T12:53:52.312Z,152
2016-05-24T12:54:52.519Z,140
2016-05-24T12:55:52.192Z,120
2016-05-24T12:56:52.524Z,112
2016-05-24T12:57:52.526Z,128
2016-05-24T12:58:52.419Z,132
2016-05-24T12:59:55.407Z,124
2016-05-24T13:00:52.909Z,128
2016-05-24T13:01:52.583Z,128
2016-05-24T13:02:52.430Z,120
2016-05-24T13:03:52.588Z,116
2016-05-24T13:04:52.654Z,128
2016-05-24T13:05:52.594Z,132
2016-05-24T13:06:52.472Z,140
2016-05-24T13:07:52.615Z,136
2016-05-24T13:08:52.634Z,124
2016-05-24T13:09:52.589Z,120
2016-05-24T13:10:52.671Z,128
2016-05-24T13:11:52.532Z,132
2016-05-24T13:12:52.817Z,132
2016-05-24T13:13:52.585Z,132
2016-05-24T13:14:52.697Z,128
2016-05-24T13:15:52.715Z,132
2016-05-24T13:16:52.717Z,128
2016-05-24T13:17:52.720Z,132
2016-05-24T13:18:52.848Z,128
2016-05-24T13:19:52.742Z,128
2016-05-24T13:20:52.634Z,128
2016-05-24T13:21:52.450Z,128
2016-05-24T13:22:52.780Z,124
2016-05-24T13:23:52.783Z,120
2016-05-24T13:24:52.520Z,128
2016-05-24T13:25:52.804Z,128
2016-05-24T13:26:52.823Z,136
2016-05-24T13:27:52.701Z,124
2016-05-24T13:28:52.860Z,128
2016-05-24T13:29:52.831Z,124
2016-05-24T13:30:53.130Z,108
2016-05-24T13:31:52.414Z,108
2016-05-24T13:32:52.746Z,100
2016-05-24T13:33:52.826Z,104
2016-05-24T13:34:52.735Z,100
2016-05-24T13:35:52.941Z,104
2016-05-24T13:36:52.912Z,108
2016-05-24T13:37:52.946Z,108
2016-05-24T13:38:52.793Z,108
2016-05-24T13:39:52.654Z,108
2016-05-24T13:40:52.970Z,104
2016-05-24T13:41:53.020Z,108
2016-05-24T13:42:52.850Z,100
2016-05-24T13:43:52.837Z,104
2016-05-24T13:44:53.011Z,96
2016-05-24T13:45:52.826Z,100
2016-05-24T13:46:53.018Z,96
2016-05-24T13:47:53.082Z,96
2016-05-24T13:48:53.131Z,100
2016-05-24T13:49:53.056Z,100
2016-05-24T13:50:53.044Z,92
2016-05-24T13:51:53.108Z,96
2016-05-24T13:52:53.080Z,100
2016-05-24T13:53:53.098Z,96
2016-05-24T13:54:53.101Z,96
2016-05-24T13:55:53.119Z,104
2016-05-24T13:56:53.138Z,120
2016-05-24T13:57:52.999Z,124
2016-05-24T13:58:53.002Z,128
2016-05-24T13:59:53.005Z,136
2016-05-24T14:00:53.133Z,132
2016-05-24T14:01:53.042Z,140
2016-05-24T14:02:53.232Z,148
2016-05-24T14:03:53.187Z,164
2016-05-24T14:04:53.191Z,164
2016-05-24T14:05:53.210Z,164
2016-05-24T14:06:53.243Z,180
2016-05-24T14:07:53.230Z,188
2016-05-24T14:08:53.092Z,192
2016-05-24T14:09:53.282Z,176
2016-05-24T14:10:53.254Z,164
2016-05-24T14:11:53.287Z,172
2016-05-24T14:12:53.306Z,152
2016-05-24T14:13:53.308Z,156
2016-05-24T14:14:53.295Z,136
2016-05-24T14:15:53.189Z,132
2016-05-24T14:16:53.332Z,144